Time;durP1;ratioP1;P1;durP2;ratioP2;P2;SDS_P1;SDS_P2;PMS_P1;PMS_P2;Temp;Humidity;BMP_temperature;BMP_pressure;BME280_temperature;BME280_humidity;BME280_pressure;Samples;Min_cycle;Max_cycle;Signal;HPM_P1;HPM_P2
2023/03/30 00:01:10;;;;;;;7.00;6.40;;;13.70;95.10;;;;;;2610048;54;20387;-69
2023/03/30 00:06:58;;;;;;;7.67;7.17;;;13.90;92.40;;;;;;2610989;54;20427;-69
2023/03/30 00:12:49;;;;;;;7.83;6.50;;;13.80;89.90;;;;;;2612322;54;20142;-73
2023/03/30 00:18:38;;;;;;;8.50;7.80;;;14.10;77.50;;;;;;2611162;54;20431;-73
2023/03/30 00:24:25;;;;;;;9.83;7.20;;;14.40;65.80;;;;;;2611552;54;20948;-73
2023/03/30 00:30:16;;;;;;;8.73;7.90;;;14.50;60.60;;;;;;2611197;54;20270;-73
2023/03/30 00:33:12;;;;;;;8.27;7.67;;;14.50;58.00;;;;;;2611672;54;20451;-74
2023/03/30 00:35:38;;;;;;;8.00;7.30;;;14.60;55.60;;;;;;2610387;54;21100;-72
2023/03/30 00:41:26;;;;;;;9.03;8.27;;;14.70;53.60;;;;;;2611748;46;20146;-73
2023/03/30 00:47:15;;;;;;;9.37;8.50;;;14.60;51.50;;;;;;2611436;54;20403;-73
2023/03/30 00:53:08;;;;;;;8.50;7.83;;;14.80;48.00;;;;;;2610070;39;20934;-73
2023/03/30 00:58:58;;;;;;;7.70;7.07;;;14.60;47.90;;;;;;2615284;54;20448;-73
2023/03/30 01:04:47;;;;;;;9.40;8.50;;;14.20;52.80;;;;;;2613325;54;20387;-72
2023/03/30 01:10:35;;;;;;;8.43;7.57;;;14.30;51.00;;;;;;2610647;54;20408;-72
2023/03/30 01:16:38;;;;;;;8.53;7.63;;;14.30;50.20;;;;;;2612059;54;20235;-73
2023/03/30 01:45:21;;;;;;;8.70;8.10;;;15.10;35.30;;;;;;2612435;54;20368;-72
2023/03/30 01:57:54;;;;;;;20.53;8.60;;;15.20;30.00;;;;;;2611532;54;20947;-72
2023/03/30 02:03:45;;;;;;;8.80;8.00;;;15.30;28.70;;;;;;2610740;54;20386;-73
2023/03/30 02:06:47;;;;;;;8.27;7.77;;;15.20;28.60;;;;;;2610991;54;20427;-73
2023/03/30 02:09:17;;;;;;;8.73;7.97;;;15.20;28.20;;;;;;2611656;31;20864;-73
2023/03/30 02:15:09;;;;;;;8.10;7.70;;;15.30;27.20;;;;;;2611524;39;20643;-73
2023/03/30 02:20:58;;;;;;;8.90;8.10;;;15.40;25.10;;;;;;2611845;39;21021;-72
2023/03/30 02:26:50;;;;;;;9.47;7.53;;;15.40;25.30;;;;;;2608927;54;20461;-73
2023/03/30 02:32:53;;;;;;;8.90;8.10;;;15.60;23.60;;;;;;2612199;54;20416;-73
2023/03/30 02:51:47;;;;;;;9.10;8.37;;;15.50;23.50;;;;;;2610479;54;20436;-68
2023/03/30 03:04:11;;;;;;;9.87;9.20;;;15.40;24.20;;;;;;2610567;39;20442;-70
2023/03/30 03:09:59;;;;;;;8.90;8.10;;;15.30;25.40;;;;;;2613018;54;21004;-70
2023/03/30 03:15:48;;;;;;;8.67;7.87;;;15.40;25.80;;;;;;2612878;54;20383;-68
2023/03/30 03:21:36;;;;;;;9.40;8.43;;;15.10;28.00;;;;;;2612108;54;20380;-70
2023/03/30 03:27:24;;;;;;;8.27;7.60;;;15.10;29.00;;;;;;2611153;54;20467;-70
2023/03/30 03:33:12;;;;;;;8.50;7.80;;;15.00;31.50;;;;;;2613745;54;20223;-69
2023/03/30 03:38:59;;;;;;;8.60;8.10;;;14.90;34.10;;;;;;2611955;54;20158;-69
2023/03/30 03:44:47;;;;;;;10.43;8.43;;;15.40;28.00;;;;;;2611305;39;20648;-68
2023/03/30 03:50:35;;;;;;;8.80;8.17;;;15.60;25.90;;;;;;2613728;54;20162;-68
2023/03/30 03:56:24;;;;;;;10.47;9.47;;;15.50;26.00;;;;;;2613320;54;20146;-68
2023/03/30 04:02:11;;;;;;;8.50;8.00;;;15.30;28.30;;;;;;2611583;54;20459;-69
2023/03/30 04:08:00;;;;;;;12.90;8.93;;;15.40;28.80;;;;;;2611871;54;20705;-68
2023/03/30 04:13:48;;;;;;;10.10;9.20;;;15.10;31.70;;;;;;2610939;54;20475;-68
2023/03/30 04:19:36;;;;;;;9.50;8.60;;;15.10;35.00;;;;;;2612140;39;20759;-68
2023/03/30 04:25:24;;;;;;;10.43;9.27;;;15.10;34.00;;;;;;2610480;54;20151;-68
2023/03/30 04:31:11;;;;;;;10.13;9.20;;;15.20;35.00;;;;;;2611673;54;20481;-68
2023/03/30 04:37:00;;;;;;;9.70;8.70;;;15.30;32.70;;;;;;2610751;54;20126;-69
2023/03/30 04:42:48;;;;;;;8.30;7.70;;;15.60;27.90;;;;;;2610075;54;20434;-69
2023/03/30 04:46:10;;;;;;;8.87;7.97;;;15.60;27.60;;;;;;2612361;54;20390;-69
2023/03/30 04:51:58;;;;;;;9.50;8.80;;;15.40;29.60;;;;;;2610333;54;20386;-69
2023/03/30 04:57:45;;;;;;;9.10;8.47;;;15.30;33.70;;;;;;2611333;54;20126;-69
2023/03/30 05:03:33;;;;;;;9.60;8.80;;;15.20;34.30;;;;;;2612258;54;20154;-69
2023/03/30 05:09:21;;;;;;;9.07;8.57;;;15.10;35.00;;;;;;2612720;54;20126;-69
2023/03/30 05:15:09;;;;;;;18.50;9.43;;;15.10;38.90;;;;;;2613923;54;20127;-69
2023/03/30 05:20:57;;;;;;;9.53;8.83;;;15.00;40.50;;;;;;2609801;54;20399;-68
2023/03/30 05:26:45;;;;;;;10.20;9.40;;;15.00;42.80;;;;;;2612241;54;20462;-68
2023/03/30 05:32:33;;;;;;;8.73;8.17;;;15.00;45.70;;;;;;2608660;39;20332;-68
2023/03/30 05:38:20;;;;;;;8.50;8.00;;;15.10;44.40;;;;;;2611926;39;20332;-68
2023/03/30 05:41:41;;;;;;;10.50;9.50;;;15.10;44.80;;;;;;2610821;54;20934;-69
2023/03/30 05:44:06;;;;;;;13.27;8.50;;;15.20;42.90;;;;;;2611966;54;20147;-72
2023/03/30 05:49:54;;;;;;;10.20;8.53;;;15.00;46.10;;;;;;2608244;54;20656;-69
2023/03/30 05:55:44;;;;;;;10.10;9.10;;;15.00;49.50;;;;;;2612748;54;20226;-68
2023/03/30 06:01:32;;;;;;;12.10;10.80;;;15.00;50.00;;;;;;2609639;54;20398;-69
2023/03/30 06:07:20;;;;;;;10.47;9.00;;;15.10;50.90;;;;;;2608240;54;20143;-69
2023/03/30 06:13:07;;;;;;;11.17;8.73;;;15.00;52.20;;;;;;2608147;54;20167;-68
2023/03/30 06:18:55;;;;;;;8.60;8.00;;;14.90;55.50;;;;;;2608547;54;20150;-68
2023/03/30 06:24:43;;;;;;;8.50;7.60;;;14.90;53.40;;;;;;2605213;54;20243;-68
2023/03/30 06:30:31;;;;;;;9.53;8.73;;;15.00;50.00;;;;;;2608775;54;20115;-69
2023/03/30 06:33:32;;;;;;;9.37;8.37;;;15.00;49.30;;;;;;2612067;39;21203;-69
2023/03/30 06:35:58;;;;;;;9.10;8.20;;;15.00;49.40;;;;;;2606566;54;20139;-69
2023/03/30 06:41:45;;;;;;;9.90;9.10;;;15.10;49.00;;;;;;2609814;54;20806;-73
2023/03/30 06:47:32;;;;;;;9.57;8.87;;;15.10;48.20;;;;;;2607543;54;20743;-69
2023/03/30 06:53:21;;;;;;;9.33;8.77;;;15.40;44.70;;;;;;2609452;54;20138;-69
2023/03/30 06:59:09;;;;;;;8.87;8.17;;;15.50;41.60;;;;;;2610288;39;20838;-68
2023/03/30 07:04:56;;;;;;;8.97;8.47;;;15.40;46.30;;;;;;2608309;54;20374;-68
2023/03/30 07:07:31;;;;;;;9.47;8.77;;;15.50;45.00;;;;;;2609925;54;20416;-68
2023/03/30 07:09:56;;;;;;;9.07;8.57;;;15.50;44.60;;;;;;2607837;39;20378;-69
2023/03/30 07:15:45;;;;;;;9.63;9.03;;;15.40;44.80;;;;;;2610030;54;20680;-69
2023/03/30 07:21:33;;;;;;;12.33;8.73;;;15.50;43.00;;;;;;2610956;54;20427;-75
2023/03/30 07:27:23;;;;;;;8.17;7.43;;;15.50;41.50;;;;;;2610852;54;20629;-74
2023/03/30 07:33:10;;;;;;;8.27;7.60;;;15.40;43.30;;;;;;2613597;31;20872;-74
2023/03/30 07:38:58;;;;;;;9.17;8.30;;;15.40;43.90;;;;;;2611806;54;20680;-73
2023/03/30 07:41:42;;;;;;;8.40;7.80;;;15.40;46.00;;;;;;2609515;54;20439;-76
2023/03/30 07:44:08;;;;;;;9.30;8.70;;;15.30;46.80;;;;;;2611767;39;20739;-75
2023/03/30 07:49:56;;;;;;;8.40;7.70;;;15.10;53.50;;;;;;2612119;54;20121;-74
2023/03/30 07:55:44;;;;;;;7.70;7.20;;;15.30;52.40;;;;;;2610956;54;20639;-75
2023/03/30 08:01:32;;;;;;;14.90;13.90;;;15.00;73.60;;;;;;2611352;54;20167;-72
2023/03/30 08:07:20;;;;;;;6.90;6.40;;;13.30;99.90;;;;;;2611940;54;20355;-73
2023/03/30 08:13:08;;;;;;;9.77;6.93;;;13.00;99.90;;;;;;2610693;54;20122;-74
2023/03/30 08:18:56;;;;;;;6.37;5.80;;;13.70;99.90;;;;;;2610959;39;20527;-73
2023/03/30 08:24:43;;;;;;;9.83;6.30;;;14.10;99.90;;;;;;2612379;54;20366;-73
2023/03/30 08:30:33;;;;;;;7.10;6.70;;;14.40;99.90;;;;;;2612375;54;20167;-74
2023/03/30 08:36:21;;;;;;;7.50;7.00;;;14.80;99.90;;;;;;2612310;54;20444;-74
2023/03/30 08:42:34;;;;;;;7.87;7.27;;;14.80;99.90;;;;;;2612272;54;20522;-73
2023/03/30 08:48:29;;;;;;;10.10;6.90;;;15.10;99.90;;;;;;2614364;39;20723;-74
2023/03/30 08:54:24;;;;;;;12.83;5.83;;;14.70;99.90;;;;;;2613395;54;21044;-74
2023/03/30 09:00:26;;;;;;;7.40;5.87;;;15.10;99.90;;;;;;2612265;54;20363;-75
2023/03/30 09:13:05;;;;;;;8.50;7.80;;;16.40;62.60;;;;;;2612861;54;20459;-75
2023/03/30 09:18:56;;;;;;;8.47;7.97;;;16.60;49.50;;;;;;2610898;54;20375;-75
2023/03/30 09:24:43;;;;;;;9.97;8.67;;;16.80;43.60;;;;;;2612841;54;20375;-74
2023/03/30 09:37:17;;;;;;;10.37;9.67;;;16.90;29.80;;;;;;2608524;54;20391;-75
2023/03/30 09:46:26;;;;;;;8.07;7.17;;;15.70;42.00;;;;;;2610920;54;20371;-74
2023/03/30 09:58:57;;;;;;;11.13;8.73;;;15.70;46.00;;;;;;2609222;54;20429;-76
2023/03/30 10:04:51;;;;;;;9.00;8.10;;;15.60;35.30;;;;;;2610052;54;20264;-75
2023/03/30 10:10:39;;;;;;;9.97;9.27;;;15.30;40.20;;;;;;2612197;54;21131;-74
2023/03/30 10:16:33;;;;;;;9.30;7.23;;;14.50;56.50;;;;;;2610678;39;20874;-74
2023/03/30 10:22:24;;;;;;;7.93;6.80;;;13.10;99.90;;;;;;2608872;54;20477;-73
2023/03/30 10:28:24;;;;;;;6.83;3.50;;;12.70;99.90;;;;;;2608997;54;20367;-73
2023/03/30 10:34:19;;;;;;;7.43;4.30;;;12.90;99.90;;;;;;2609854;54;20390;-73
2023/03/30 10:40:14;;;;;;;7.70;4.90;;;13.10;99.90;;;;;;2611909;54;20435;-73
2023/03/30 10:53:58;;;;;;;12.80;4.90;;;13.70;99.90;;;;;;2610660;54;20421;-73
2023/03/30 11:00:24;;;;;;;8.30;5.30;;;14.50;99.90;;;;;;2611523;54;21051;-74
2023/03/30 11:18:52;;;;;;;8.60;6.60;;;16.70;79.40;;;;;;2610084;54;20382;-74
2023/03/30 11:24:43;;;;;;;6.37;5.87;;;16.10;79.30;;;;;;2607817;54;20481;-73
2023/03/30 11:30:34;;;;;;;10.53;7.20;;;16.30;77.30;;;;;;2610564;54;20375;-74
2023/03/30 11:42:49;;;;;;;7.30;6.70;;;16.30;77.80;;;;;;2614315;54;20500;-75
2023/03/30 11:58:39;;;;;;;8.47;7.63;;;16.90;60.30;;;;;;2611394;54;20751;-74
2023/03/30 12:17:40;;;;;;;8.50;6.47;;;14.80;77.70;;;;;;2611521;54;20399;-75
2023/03/30 12:23:40;;;;;;;9.40;6.93;;;15.30;80.70;;;;;;2612120;54;20363;-74
2023/03/30 12:29:50;;;;;;;14.30;4.90;;;15.20;71.30;;;;;;2611318;54;20371;-75
2023/03/30 12:35:53;;;;;;;6.43;3.57;;;15.40;99.90;;;;;;2609861;54;20419;-74
2023/03/30 12:41:47;;;;;;;6.10;3.37;;;14.90;99.90;;;;;;2612380;54;20547;-74
2023/03/30 13:00:58;;;;;;;4.77;4.30;;;14.40;99.90;;;;;;2612851;54;20395;-73
2023/03/30 13:06:51;;;;;;;6.10;3.50;;;13.70;99.90;;;;;;2612458;54;20376;-74
2023/03/30 13:12:40;;;;;;;6.90;2.97;;;13.50;99.90;;;;;;2610934;47;20483;-74
2023/03/30 13:18:28;;;;;;;4.73;2.70;;;12.80;99.90;;;;;;2611591;54;20375;-73
2023/03/30 13:31:36;;;;;;;9.23;4.63;;;13.50;99.90;;;;;;2611113;39;21144;-74
2023/03/30 13:51:51;;;;;;;8.13;4.80;;;16.30;81.40;;;;;;2611364;39;21104;-74
2023/03/30 13:57:40;;;;;;;7.23;4.77;;;15.70;99.90;;;;;;2609231;54;20391;-74
2023/03/30 14:16:46;;;;;;;10.90;4.67;;;16.30;86.80;;;;;;2609077;54;20934;-74
2023/03/30 14:28:54;;;;;;;11.50;6.40;;;16.60;81.70;;;;;;2607283;54;21051;-75
2023/03/30 14:34:50;;;;;;;7.83;6.77;;;17.30;68.70;;;;;;2608342;54;20399;-73
2023/03/30 14:40:38;;;;;;;6.53;5.90;;;16.10;66.80;;;;;;2609863;54;20947;-73
2023/03/30 14:53:00;;;;;;;6.90;6.20;;;15.50;74.40;;;;;;2610522;54;20418;-75
2023/03/30 14:58:50;;;;;;;8.53;3.20;;;14.30;99.90;;;;;;2611715;54;20126;-71
2023/03/30 15:04:37;;;;;;;9.63;3.40;;;11.70;99.90;;;;;;2612653;54;20438;-73
2023/03/30 15:16:40;;;;;;;8.23;3.50;;;13.00;99.90;;;;;;2611591;54;20375;-73
2023/03/30 15:22:38;;;;;;;12.23;5.17;;;13.30;99.90;;;;;;2611501;54;20239;-73
2023/03/30 15:28:31;;;;;;;12.10;6.10;;;13.50;99.90;;;;;;2612729;54;20426;-75
2023/03/30 15:34:19;;;;;;;10.43;4.03;;;14.00;99.90;;;;;;2613173;54;20476;-74
2023/03/30 15:44:41;;;;;;;8.40;3.80;;;13.70;99.90;;;;;;2611111;54;20363;-74
2023/03/30 15:47:28;;;;;;;4.40;3.40;;;13.80;99.90;;;;;;2607925;54;20527;-72
2023/03/30 15:49:54;;;;;;;3.90;3.50;;;12.10;99.90;;;;;;2609634;54;20414;-73
2023/03/30 15:55:44;;;;;;;3.53;2.80;;;12.80;99.90;;;;;;2604954;54;20986;-73
2023/03/30 16:12:27;;;;;;;9.20;2.80;;;13.90;99.90;;;;;;2608618;31;20895;-74
2023/03/30 16:18:15;;;;;;;6.70;3.37;;;14.20;99.90;;;;;;2609171;54;21009;-74
2023/03/30 16:24:03;;;;;;;8.43;3.33;;;15.20;99.90;;;;;;2612328;39;20733;-74
2023/03/30 16:29:51;;;;;;;8.60;3.77;;;16.50;99.90;;;;;;2613377;54;20138;-75
2023/03/30 16:35:38;;;;;;;7.57;3.50;;;15.90;99.90;;;;;;2611729;39;20502;-74
2023/03/30 16:41:26;;;;;;;4.90;3.60;;;14.20;99.90;;;;;;2612226;54;20134;-75
2023/03/30 16:47:14;;;;;;;10.10;3.50;;;13.60;99.90;;;;;;2611016;54;20137;-75
2023/03/30 16:53:02;;;;;;;4.90;3.40;;;13.40;99.90;;;;;;2609779;54;20435;-75
2023/03/30 16:58:50;;;;;;;9.10;3.80;;;13.20;99.90;;;;;;2610557;54;20407;-76
2023/03/30 17:04:38;;;;;;;5.00;3.03;;;13.00;99.90;;;;;;2609972;39;20554;-76
2023/03/30 17:10:28;;;;;;;9.27;3.63;;;13.00;99.90;;;;;;2609074;54;20645;-76
2023/03/30 17:16:15;;;;;;;7.70;3.17;;;13.00;99.90;;;;;;2608555;54;20414;-74
2023/03/30 17:22:03;;;;;;;7.17;3.63;;;12.80;99.90;;;;;;2608972;54;26014;-75
2023/03/30 17:27:53;;;;;;;5.97;3.13;;;12.70;99.90;;;;;;2610254;54;20245;-74
2023/03/30 17:33:41;;;;;;;9.77;3.80;;;12.40;99.90;;;;;;2607212;54;20431;-72
2023/03/30 17:39:28;;;;;;;17.33;5.00;;;12.10;99.90;;;;;;2610376;54;20363;-74
2023/03/30 17:45:19;;;;;;;12.83;4.33;;;11.90;99.90;;;;;;2611515;54;20162;-73
2023/03/30 17:54:29;;;;;;;4.23;3.07;;;11.70;99.90;;;;;;2612769;54;20391;-74
2023/03/30 18:00:27;;;;;;;5.53;2.63;;;11.80;99.90;;;;;;2611725;39;20802;-73
2023/03/30 18:06:15;;;;;;;12.60;3.43;;;11.90;99.90;;;;;;2609003;54;20436;-72
2023/03/30 18:12:03;;;;;;;6.53;2.93;;;11.80;99.90;;;;;;2610843;39;20402;-73
2023/03/30 18:17:51;;;;;;;5.80;2.87;;;11.80;99.90;;;;;;2609547;39;20767;-73
2023/03/30 18:23:39;;;;;;;4.73;2.80;;;11.80;99.90;;;;;;2609688;54;20450;-73
2023/03/30 18:29:29;;;;;;;2.30;1.97;;;11.90;99.90;;;;;;2613213;54;20126;-74
2023/03/30 18:35:17;;;;;;;3.93;2.60;;;11.90;99.90;;;;;;2611256;54;20394;-73
2023/03/30 18:41:05;;;;;;;10.13;5.50;;;11.80;99.90;;;;;;2613442;54;21004;-75
2023/03/30 18:46:52;;;;;;;6.53;4.70;;;11.80;99.90;;;;;;2612023;54;20130;-76
2023/03/30 18:49:58;;;;;;;7.10;3.47;;;11.80;99.90;;;;;;2610674;54;20424;-76
2023/03/30 18:52:23;;;;;;;6.73;6.00;;;11.70;99.90;;;;;;2608702;47;20177;-75
2023/03/30 18:58:18;;;;;;;11.07;4.53;;;11.70;99.90;;;;;;2613438;54;20131;-75
2023/03/30 19:04:06;;;;;;;7.53;3.90;;;11.80;99.90;;;;;;2612899;54;20366;-76
2023/03/30 19:09:54;;;;;;;8.43;3.50;;;11.70;99.90;;;;;;2614536;54;20150;-76
2023/03/30 19:15:44;;;;;;;14.90;6.80;;;11.60;99.90;;;;;;2614308;54;20135;-77
2023/03/30 19:21:31;;;;;;;8.80;4.53;;;11.50;99.90;;;;;;2612661;54;20941;-74
2023/03/30 19:27:19;;;;;;;6.70;4.73;;;11.60;99.90;;;;;;2611639;54;20122;-76
2023/03/30 19:33:10;;;;;;;9.23;3.97;;;11.70;99.90;;;;;;2613111;46;20157;-76
2023/03/30 19:36:14;;;;;;;7.57;3.93;;;11.70;99.90;;;;;;2608555;39;20804;-76
2023/03/30 19:38:40;;;;;;;9.70;4.10;;;12.00;99.90;;;;;;2610008;54;20395;-76
2023/03/30 19:44:28;;;;;;;9.83;4.43;;;11.90;99.90;;;;;;2614105;39;20880;-76
2023/03/30 19:54:30;;;;;;;5.10;3.50;;;12.10;99.90;;;;;;2613630;54;20985;-76
2023/03/30 20:00:19;;;;;;;4.30;3.20;;;12.10;99.90;;;;;;2613739;54;20367;-77
2023/03/30 20:06:11;;;;;;;12.60;3.73;;;12.20;99.90;;;;;;2613996;54;20428;-75
2023/03/30 20:11:59;;;;;;;6.97;3.30;;;12.20;99.90;;;;;;2606093;54;20367;-76
2023/03/30 20:17:47;;;;;;;4.53;3.70;;;12.30;99.90;;;;;;2613099;54;20351;-77
2023/03/30 20:23:35;;;;;;;5.43;3.47;;;12.40;99.90;;;;;;2610822;46;20213;-75
2023/03/30 20:29:22;;;;;;;4.80;2.67;;;12.40;99.90;;;;;;2609447;54;20165;-75
2023/03/30 20:35:11;;;;;;;4.33;2.80;;;12.10;99.90;;;;;;2610494;54;20247;-76
2023/03/30 20:41:02;;;;;;;5.90;2.47;;;12.00;99.90;;;;;;2609656;39;20430;-76
2023/03/30 20:46:56;;;;;;;8.10;2.40;;;12.00;99.90;;;;;;2609664;54;20359;-76
2023/03/30 20:52:45;;;;;;;5.43;3.33;;;11.90;99.90;;;;;;2610757;54;20363;-76
2023/03/30 20:58:32;;;;;;;3.63;2.20;;;11.90;99.90;;;;;;2609902;54;20542;-76
2023/03/30 21:04:21;;;;;;;6.10;2.70;;;11.60;99.90;;;;;;2613660;54;20748;-76
2023/03/30 21:10:09;;;;;;;4.13;2.33;;;11.80;99.90;;;;;;2614260;54;20370;-76
2023/03/30 21:16:01;;;;;;;5.43;2.33;;;11.60;99.90;;;;;;2610382;54;20142;-76
2023/03/30 21:21:49;;;;;;;6.50;3.10;;;11.60;99.90;;;;;;2612142;39;20784;-76
2023/03/30 21:27:37;;;;;;;6.67;3.03;;;11.30;99.90;;;;;;2610023;54;20166;-75
2023/03/30 21:33:27;;;;;;;4.00;2.60;;;11.30;99.90;;;;;;2611858;54;20368;-74
2023/03/30 21:39:15;;;;;;;4.53;2.30;;;11.30;99.90;;;;;;2609565;54;20399;-77
2023/03/30 21:45:03;;;;;;;4.07;2.17;;;11.30;99.90;;;;;;2608428;54;20122;-76
2023/03/30 21:51:00;;;;;;;12.40;2.33;;;11.30;99.90;;;;;;2611568;54;20981;-76
2023/03/30 22:00:11;;;;;;;2.97;1.90;;;11.30;99.90;;;;;;2609479;54;21126;-76
2023/03/30 22:06:01;;;;;;;5.80;2.40;;;11.30;99.90;;;;;;2609783;54;20387;-76
2023/03/30 22:11:51;;;;;;;4.97;2.30;;;11.10;99.90;;;;;;2610483;54;20379;-76
2023/03/30 22:17:41;;;;;;;6.23;3.87;;;11.10;99.90;;;;;;2611640;54;20341;-76
2023/03/30 22:23:30;;;;;;;9.00;3.60;;;11.10;99.90;;;;;;2609892;54;20454;-77
2023/03/30 22:29:19;;;;;;;8.03;2.40;;;11.10;99.90;;;;;;2611985;54;20385;-76
2023/03/30 22:35:08;;;;;;;4.23;2.07;;;11.20;99.90;;;;;;2611063;54;20446;-76
2023/03/30 22:41:03;;;;;;;3.90;2.43;;;11.30;99.90;;;;;;2609613;54;20375;-77
2023/03/30 22:46:52;;;;;;;4.10;1.87;;;11.50;99.90;;;;;;2609656;54;20418;-76
2023/03/30 22:52:40;;;;;;;6.90;2.30;;;11.60;99.90;;;;;;2610250;54;21010;-75
2023/03/30 22:55:32;;;;;;;4.83;2.23;;;11.60;99.90;;;;;;2610797;54;20400;-76
2023/03/30 22:57:58;;;;;;;3.90;2.30;;;11.60;99.90;;;;;;2609948;54;20626;-76
2023/03/30 23:03:46;;;;;;;8.30;2.37;;;11.60;99.90;;;;;;2610105;54;20123;-76
2023/03/30 23:09:34;;;;;;;10.00;2.13;;;11.70;99.90;;;;;;2607940;54;20363;-74
2023/03/30 23:15:22;;;;;;;7.03;2.63;;;11.70;99.90;;;;;;2614243;54;20133;-75
2023/03/30 23:21:10;;;;;;;7.87;2.40;;;11.70;99.90;;;;;;2613952;54;20134;-76
2023/03/30 23:26:58;;;;;;;5.80;2.70;;;11.70;99.90;;;;;;2614179;46;20430;-77
2023/03/30 23:32:46;;;;;;;7.57;2.83;;;11.60;99.90;;;;;;2614560;54;20142;-76
2023/03/30 23:38:33;;;;;;;6.73;2.60;;;11.70;99.90;;;;;;2614424;54;20139;-76
2023/03/30 23:44:22;;;;;;;6.50;2.70;;;11.50;99.90;;;;;;2614713;54;20227;-77
2023/03/30 23:50:10;;;;;;;4.70;2.10;;;11.40;99.90;;;;;;2614819;54;20399;-76
